sensor_id;sensor_type;location;lat;lon;timestamp;P1;durP1;ratioP1;P2;durP2;ratioP2
67130;SDS011;54051;53.464;49.532;2022-07-30T00:00:44;26.52;;;17.65;;
67130;SDS011;54051;53.464;49.532;2022-07-30T00:03:10;28.67;;;17.37;;
67130;SDS011;54051;53.464;49.532;2022-07-30T00:05:36;27.63;;;17.85;;
67130;SDS011;54051;53.464;49.532;2022-07-30T00:08:02;26.13;;;18.03;;
67130;SDS011;54051;53.464;49.532;2022-07-30T00:10:28;28.13;;;17.60;;
67130;SDS011;54051;53.464;49.532;2022-07-30T00:12:55;26.83;;;16.88;;
67130;SDS011;54051;53.464;49.532;2022-07-30T00:15:21;28.77;;;16.85;;
67130;SDS011;54051;53.464;49.532;2022-07-30T00:17:47;27.27;;;17.55;;
67130;SDS011;54051;53.464;49.532;2022-07-30T00:20:13;25.20;;;17.05;;
67130;SDS011;54051;53.464;49.532;2022-07-30T00:22:39;25.40;;;17.47;;
67130;SDS011;54051;53.464;49.532;2022-07-30T00:25:05;26.77;;;17.33;;
67130;SDS011;54051;53.464;49.532;2022-07-30T00:27:32;24.48;;;17.15;;
67130;SDS011;54051;53.464;49.532;2022-07-30T00:30:00;26.98;;;17.48;;
67130;SDS011;54051;53.464;49.532;2022-07-30T00:32:26;28.08;;;17.92;;
67130;SDS011;54051;53.464;49.532;2022-07-30T00:34:52;27.67;;;17.27;;
67130;SDS011;54051;53.464;49.532;2022-07-30T00:37:18;26.63;;;17.20;;
67130;SDS011;54051;53.464;49.532;2022-07-30T00:39:44;24.05;;;16.20;;
67130;SDS011;54051;53.464;49.532;2022-07-30T00:42:10;25.83;;;16.73;;
67130;SDS011;54051;53.464;49.532;2022-07-30T00:44:36;23.13;;;15.83;;
67130;SDS011;54051;53.464;49.532;2022-07-30T00:47:03;25.35;;;16.15;;
67130;SDS011;54051;53.464;49.532;2022-07-30T00:49:29;24.80;;;16.13;;
67130;SDS011;54051;53.464;49.532;2022-07-30T00:51:55;25.47;;;16.27;;
67130;SDS011;54051;53.464;49.532;2022-07-30T00:54:22;24.02;;;15.80;;
67130;SDS011;54051;53.464;49.532;2022-07-30T00:56:48;22.57;;;15.67;;
67130;SDS011;54051;53.464;49.532;2022-07-30T00:59:14;23.75;;;14.93;;
67130;SDS011;54051;53.464;49.532;2022-07-30T01:01:40;23.50;;;15.45;;
67130;SDS011;54051;53.464;49.532;2022-07-30T01:04:06;22.80;;;14.65;;
67130;SDS011;54051;53.464;49.532;2022-07-30T01:06:38;23.58;;;15.60;;
67130;SDS011;54051;53.464;49.532;2022-07-30T01:09:05;22.33;;;14.70;;
67130;SDS011;54051;53.464;49.532;2022-07-30T01:14:00;23.13;;;14.75;;
67130;SDS011;54051;53.464;49.532;2022-07-30T01:16:26;21.85;;;14.55;;
67130;SDS011;54051;53.464;49.532;2022-07-30T01:18:53;22.00;;;14.85;;
67130;SDS011;54051;53.464;49.532;2022-07-30T01:21:40;23.35;;;14.88;;
67130;SDS011;54051;53.464;49.532;2022-07-30T01:24:20;24.60;;;15.32;;
67130;SDS011;54051;53.464;49.532;2022-07-30T01:26:51;22.58;;;14.70;;
67130;SDS011;54051;53.464;49.532;2022-07-30T01:29:19;22.52;;;14.32;;
67130;SDS011;54051;53.464;49.532;2022-07-30T01:31:46;22.15;;;14.63;;
67130;SDS011;54051;53.464;49.532;2022-07-30T01:34:14;21.67;;;14.75;;
67130;SDS011;54051;53.464;49.532;2022-07-30T01:36:42;23.75;;;14.40;;
67130;SDS011;54051;53.464;49.532;2022-07-30T01:39:10;21.88;;;14.15;;
67130;SDS011;54051;53.464;49.532;2022-07-30T01:41:38;21.60;;;14.02;;
67130;SDS011;54051;53.464;49.532;2022-07-30T01:44:06;21.33;;;13.52;;
67130;SDS011;54051;53.464;49.532;2022-07-30T01:46:36;22.02;;;13.90;;
67130;SDS011;54051;53.464;49.532;2022-07-30T01:49:03;20.88;;;13.70;;
67130;SDS011;54051;53.464;49.532;2022-07-30T01:51:30;20.55;;;13.60;;
67130;SDS011;54051;53.464;49.532;2022-07-30T01:53:58;21.27;;;13.45;;
67130;SDS011;54051;53.464;49.532;2022-07-30T01:56:24;20.15;;;13.70;;
67130;SDS011;54051;53.464;49.532;2022-07-30T01:58:51;21.08;;;13.32;;
67130;SDS011;54051;53.464;49.532;2022-07-30T02:01:20;19.88;;;13.25;;
67130;SDS011;54051;53.464;49.532;2022-07-30T02:03:47;20.75;;;12.95;;
67130;SDS011;54051;53.464;49.532;2022-07-30T02:06:16;20.77;;;13.33;;
67130;SDS011;54051;53.464;49.532;2022-07-30T02:08:56;20.83;;;12.75;;
67130;SDS011;54051;53.464;49.532;2022-07-30T02:11:25;20.73;;;12.60;;
67130;SDS011;54051;53.464;49.532;2022-07-30T02:14:10;21.40;;;13.02;;
67130;SDS011;54051;53.464;49.532;2022-07-30T02:16:42;20.73;;;13.43;;
67130;SDS011;54051;53.464;49.532;2022-07-30T02:19:14;21.42;;;13.50;;
67130;SDS011;54051;53.464;49.532;2022-07-30T02:21:43;20.85;;;12.20;;
67130;SDS011;54051;53.464;49.532;2022-07-30T02:24:13;22.02;;;13.15;;
67130;SDS011;54051;53.464;49.532;2022-07-30T02:26:44;18.33;;;12.05;;
67130;SDS011;54051;53.464;49.532;2022-07-30T02:29:12;20.73;;;12.32;;
67130;SDS011;54051;53.464;49.532;2022-07-30T02:31:40;19.23;;;12.43;;
67130;SDS011;54051;53.464;49.532;2022-07-30T02:34:07;19.05;;;12.18;;
67130;SDS011;54051;53.464;49.532;2022-07-30T02:36:35;22.05;;;12.68;;
67130;SDS011;54051;53.464;49.532;2022-07-30T02:39:03;19.42;;;11.98;;
67130;SDS011;54051;53.464;49.532;2022-07-30T02:46:23;18.73;;;12.05;;
67130;SDS011;54051;53.464;49.532;2022-07-30T02:48:50;17.77;;;11.90;;
67130;SDS011;54051;53.464;49.532;2022-07-30T02:51:19;17.67;;;11.75;;
67130;SDS011;54051;53.464;49.532;2022-07-30T02:53:47;16.17;;;11.07;;
67130;SDS011;54051;53.464;49.532;2022-07-30T02:56:16;18.40;;;11.82;;
67130;SDS011;54051;53.464;49.532;2022-07-30T02:58:44;18.88;;;12.18;;
67130;SDS011;54051;53.464;49.532;2022-07-30T03:01:12;16.88;;;11.90;;
67130;SDS011;54051;53.464;49.532;2022-07-30T03:03:42;16.63;;;11.65;;
67130;SDS011;54051;53.464;49.532;2022-07-30T03:06:09;16.90;;;11.57;;
67130;SDS011;54051;53.464;49.532;2022-07-30T03:08:38;15.85;;;10.82;;
67130;SDS011;54051;53.464;49.532;2022-07-30T03:11:09;15.75;;;11.20;;
67130;SDS011;54051;53.464;49.532;2022-07-30T03:13:37;14.02;;;10.75;;
67130;SDS011;54051;53.464;49.532;2022-07-30T03:16:06;15.50;;;10.52;;
67130;SDS011;54051;53.464;49.532;2022-07-30T03:18:35;14.68;;;10.55;;
67130;SDS011;54051;53.464;49.532;2022-07-30T03:21:03;16.63;;;10.05;;
67130;SDS011;54051;53.464;49.532;2022-07-30T03:23:33;16.00;;;10.88;;
67130;SDS011;54051;53.464;49.532;2022-07-30T03:26:02;16.58;;;10.70;;
67130;SDS011;54051;53.464;49.532;2022-07-30T03:28:31;16.42;;;10.40;;
67130;SDS011;54051;53.464;49.532;2022-07-30T03:31:01;14.15;;;10.02;;
67130;SDS011;54051;53.464;49.532;2022-07-30T03:33:27;13.63;;;10.02;;
67130;SDS011;54051;53.464;49.532;2022-07-30T03:35:55;16.30;;;10.07;;
67130;SDS011;54051;53.464;49.532;2022-07-30T03:38:22;15.27;;;10.35;;
67130;SDS011;54051;53.464;49.532;2022-07-30T03:40:50;16.67;;;10.48;;
67130;SDS011;54051;53.464;49.532;2022-07-30T03:43:17;14.20;;;9.88;;
67130;SDS011;54051;53.464;49.532;2022-07-30T03:45:44;15.55;;;9.85;;
67130;SDS011;54051;53.464;49.532;2022-07-30T03:48:11;12.60;;;9.65;;
67130;SDS011;54051;53.464;49.532;2022-07-30T03:50:41;13.93;;;9.77;;
67130;SDS011;54051;53.464;49.532;2022-07-30T03:53:08;14.07;;;10.15;;
67130;SDS011;54051;53.464;49.532;2022-07-30T03:55:35;14.63;;;9.90;;
67130;SDS011;54051;53.464;49.532;2022-07-30T03:58:02;13.50;;;9.05;;
67130;SDS011;54051;53.464;49.532;2022-07-30T04:00:30;14.50;;;9.98;;
67130;SDS011;54051;53.464;49.532;2022-07-30T04:02:57;17.05;;;10.45;;
67130;SDS011;54051;53.464;49.532;2022-07-30T04:05:23;15.40;;;10.50;;
67130;SDS011;54051;53.464;49.532;2022-07-30T04:07:49;14.18;;;10.25;;
67130;SDS011;54051;53.464;49.532;2022-07-30T04:10:15;14.18;;;9.25;;
67130;SDS011;54051;53.464;49.532;2022-07-30T04:12:41;16.85;;;9.63;;
67130;SDS011;54051;53.464;49.532;2022-07-30T04:15:07;14.30;;;9.30;;
67130;SDS011;54051;53.464;49.532;2022-07-30T04:17:39;14.43;;;10.50;;
67130;SDS011;54051;53.464;49.532;2022-07-30T04:20:09;13.38;;;9.93;;
67130;SDS011;54051;53.464;49.532;2022-07-30T04:22:38;14.45;;;9.93;;
67130;SDS011;54051;53.464;49.532;2022-07-30T04:25:05;13.75;;;9.70;;
67130;SDS011;54051;53.464;49.532;2022-07-30T04:27:33;15.48;;;9.38;;
67130;SDS011;54051;53.464;49.532;2022-07-30T04:30:01;13.82;;;9.93;;
67130;SDS011;54051;53.464;49.532;2022-07-30T04:32:28;14.77;;;8.95;;
67130;SDS011;54051;53.464;49.532;2022-07-30T04:34:55;14.93;;;9.32;;
67130;SDS011;54051;53.464;49.532;2022-07-30T04:37:23;14.73;;;9.48;;
67130;SDS011;54051;53.464;49.532;2022-07-30T04:39:51;14.57;;;8.93;;
67130;SDS011;54051;53.464;49.532;2022-07-30T04:42:25;12.00;;;8.40;;
67130;SDS011;54051;53.464;49.532;2022-07-30T04:44:53;14.38;;;8.68;;
67130;SDS011;54051;53.464;49.532;2022-07-30T04:47:20;13.35;;;8.73;;
67130;SDS011;54051;53.464;49.532;2022-07-30T04:49:46;13.30;;;8.88;;
67130;SDS011;54051;53.464;49.532;2022-07-30T04:52:13;12.38;;;8.52;;
67130;SDS011;54051;53.464;49.532;2022-07-30T04:54:42;12.32;;;8.55;;
67130;SDS011;54051;53.464;49.532;2022-07-30T04:57:16;13.23;;;8.50;;
67130;SDS011;54051;53.464;49.532;2022-07-30T04:59:43;12.45;;;8.82;;
67130;SDS011;54051;53.464;49.532;2022-07-30T05:02:10;13.13;;;8.70;;
67130;SDS011;54051;53.464;49.532;2022-07-30T05:04:37;14.30;;;9.00;;
67130;SDS011;54051;53.464;49.532;2022-07-30T05:07:08;12.65;;;8.68;;
67130;SDS011;54051;53.464;49.532;2022-07-30T05:09:38;13.35;;;8.52;;
67130;SDS011;54051;53.464;49.532;2022-07-30T05:12:05;11.90;;;8.77;;
67130;SDS011;54051;53.464;49.532;2022-07-30T05:14:31;11.00;;;8.23;;
67130;SDS011;54051;53.464;49.532;2022-07-30T05:16:58;12.38;;;8.82;;
67130;SDS011;54051;53.464;49.532;2022-07-30T05:19:24;12.23;;;8.77;;
67130;SDS011;54051;53.464;49.532;2022-07-30T05:21:50;18.02;;;8.88;;
67130;SDS011;54051;53.464;49.532;2022-07-30T05:24:16;14.05;;;8.95;;
67130;SDS011;54051;53.464;49.532;2022-07-30T05:26:43;13.05;;;9.20;;
67130;SDS011;54051;53.464;49.532;2022-07-30T05:29:09;13.73;;;9.10;;
67130;SDS011;54051;53.464;49.532;2022-07-30T05:31:36;12.90;;;8.90;;
67130;SDS011;54051;53.464;49.532;2022-07-30T05:34:02;11.63;;;8.68;;
67130;SDS011;54051;53.464;49.532;2022-07-30T05:36:28;20.77;;;9.57;;
67130;SDS011;54051;53.464;49.532;2022-07-30T05:38:54;12.10;;;8.75;;
67130;SDS011;54051;53.464;49.532;2022-07-30T05:41:20;14.95;;;9.63;;
67130;SDS011;54051;53.464;49.532;2022-07-30T05:43:46;13.50;;;9.15;;
67130;SDS011;54051;53.464;49.532;2022-07-30T05:46:12;12.45;;;8.90;;
67130;SDS011;54051;53.464;49.532;2022-07-30T05:48:38;13.27;;;8.90;;
67130;SDS011;54051;53.464;49.532;2022-07-30T05:51:04;13.27;;;9.13;;
67130;SDS011;54051;53.464;49.532;2022-07-30T05:53:30;11.80;;;9.27;;
67130;SDS011;54051;53.464;49.532;2022-07-30T05:55:56;12.60;;;9.55;;
67130;SDS011;54051;53.464;49.532;2022-07-30T05:58:23;13.75;;;9.10;;
67130;SDS011;54051;53.464;49.532;2022-07-30T06:00:49;11.82;;;9.20;;
67130;SDS011;54051;53.464;49.532;2022-07-30T06:03:15;12.75;;;8.82;;
67130;SDS011;54051;53.464;49.532;2022-07-30T06:05:41;14.35;;;8.85;;
67130;SDS011;54051;53.464;49.532;2022-07-30T06:08:07;13.32;;;8.95;;
67130;SDS011;54051;53.464;49.532;2022-07-30T06:10:33;12.70;;;8.27;;
67130;SDS011;54051;53.464;49.532;2022-07-30T06:12:59;14.32;;;8.48;;
67130;SDS011;54051;53.464;49.532;2022-07-30T06:15:26;12.55;;;8.82;;
67130;SDS011;54051;53.464;49.532;2022-07-30T06:17:52;10.23;;;7.80;;
67130;SDS011;54051;53.464;49.532;2022-07-30T06:20:18;14.25;;;8.40;;
67130;SDS011;54051;53.464;49.532;2022-07-30T06:22:45;13.07;;;8.80;;
67130;SDS011;54051;53.464;49.532;2022-07-30T06:25:11;10.80;;;8.40;;
67130;SDS011;54051;53.464;49.532;2022-07-30T06:27:38;10.98;;;8.27;;
67130;SDS011;54051;53.464;49.532;2022-07-30T06:30:07;11.32;;;8.60;;
67130;SDS011;54051;53.464;49.532;2022-07-30T06:32:34;13.10;;;8.73;;
67130;SDS011;54051;53.464;49.532;2022-07-30T06:35:00;11.48;;;8.50;;
67130;SDS011;54051;53.464;49.532;2022-07-30T06:37:27;13.93;;;9.13;;
67130;SDS011;54051;53.464;49.532;2022-07-30T06:39:53;14.00;;;8.95;;
67130;SDS011;54051;53.464;49.532;2022-07-30T06:42:19;11.48;;;8.80;;
67130;SDS011;54051;53.464;49.532;2022-07-30T06:44:46;13.30;;;9.02;;
67130;SDS011;54051;53.464;49.532;2022-07-30T06:47:12;10.65;;;8.25;;
67130;SDS011;54051;53.464;49.532;2022-07-30T06:49:38;14.18;;;8.90;;
67130;SDS011;54051;53.464;49.532;2022-07-30T06:52:04;11.48;;;8.30;;
67130;SDS011;54051;53.464;49.532;2022-07-30T06:54:30;13.02;;;9.18;;
67130;SDS011;54051;53.464;49.532;2022-07-30T06:56:56;13.77;;;9.27;;
67130;SDS011;54051;53.464;49.532;2022-07-30T06:59:22;12.73;;;9.35;;
67130;SDS011;54051;53.464;49.532;2022-07-30T07:01:48;12.32;;;8.80;;
67130;SDS011;54051;53.464;49.532;2022-07-30T07:04:18;13.60;;;9.05;;
67130;SDS011;54051;53.464;49.532;2022-07-30T07:06:44;12.52;;;8.98;;
67130;SDS011;54051;53.464;49.532;2022-07-30T07:09:10;15.63;;;9.23;;
67130;SDS011;54051;53.464;49.532;2022-07-30T07:11:36;13.73;;;8.63;;
67130;SDS011;54051;53.464;49.532;2022-07-30T07:14:02;20.50;;;10.60;;
67130;SDS011;54051;53.464;49.532;2022-07-30T07:16:28;13.75;;;9.55;;
67130;SDS011;54051;53.464;49.532;2022-07-30T07:18:55;12.85;;;9.20;;
67130;SDS011;54051;53.464;49.532;2022-07-30T07:21:21;13.18;;;8.90;;
67130;SDS011;54051;53.464;49.532;2022-07-30T07:23:47;14.10;;;9.07;;
67130;SDS011;54051;53.464;49.532;2022-07-30T07:26:14;16.45;;;9.52;;
67130;SDS011;54051;53.464;49.532;2022-07-30T07:28:40;16.25;;;9.90;;
67130;SDS011;54051;53.464;49.532;2022-07-30T07:31:07;17.75;;;9.10;;
67130;SDS011;54051;53.464;49.532;2022-07-30T07:33:34;14.77;;;9.27;;
67130;SDS011;54051;53.464;49.532;2022-07-30T07:36:00;14.82;;;9.68;;
67130;SDS011;54051;53.464;49.532;2022-07-30T07:38:25;12.52;;;9.10;;
67130;SDS011;54051;53.464;49.532;2022-07-30T07:40:52;12.20;;;9.50;;
67130;SDS011;54051;53.464;49.532;2022-07-30T07:43:18;14.55;;;9.73;;
67130;SDS011;54051;53.464;49.532;2022-07-30T07:45:44;12.82;;;9.20;;
67130;SDS011;54051;53.464;49.532;2022-07-30T07:48:10;13.85;;;8.93;;
67130;SDS011;54051;53.464;49.532;2022-07-30T07:50:36;13.32;;;9.15;;
67130;SDS011;54051;53.464;49.532;2022-07-30T07:53:03;12.63;;;9.10;;
67130;SDS011;54051;53.464;49.532;2022-07-30T07:55:29;12.32;;;8.75;;
67130;SDS011;54051;53.464;49.532;2022-07-30T07:57:55;16.65;;;9.60;;
67130;SDS011;54051;53.464;49.532;2022-07-30T08:00:21;13.30;;;8.95;;
67130;SDS011;54051;53.464;49.532;2022-07-30T08:02:47;13.23;;;8.73;;
67130;SDS011;54051;53.464;49.532;2022-07-30T08:05:14;13.70;;;8.93;;
67130;SDS011;54051;53.464;49.532;2022-07-30T08:07:41;12.60;;;9.13;;
67130;SDS011;54051;53.464;49.532;2022-07-30T08:10:08;13.85;;;8.82;;
67130;SDS011;54051;53.464;49.532;2022-07-30T08:12:35;12.80;;;8.95;;
67130;SDS011;54051;53.464;49.532;2022-07-30T08:15:02;13.10;;;8.80;;
67130;SDS011;54051;53.464;49.532;2022-07-30T08:17:28;12.65;;;9.30;;
67130;SDS011;54051;53.464;49.532;2022-07-30T08:19:58;12.27;;;8.50;;
67130;SDS011;54051;53.464;49.532;2022-07-30T08:22:25;13.90;;;8.50;;
67130;SDS011;54051;53.464;49.532;2022-07-30T08:24:51;14.15;;;9.05;;
67130;SDS011;54051;53.464;49.532;2022-07-30T08:27:17;14.05;;;9.18;;
67130;SDS011;54051;53.464;49.532;2022-07-30T08:29:43;12.35;;;8.82;;
67130;SDS011;54051;53.464;49.532;2022-07-30T08:32:09;12.48;;;9.05;;
67130;SDS011;54051;53.464;49.532;2022-07-30T08:34:35;14.27;;;8.88;;
67130;SDS011;54051;53.464;49.532;2022-07-30T08:37:01;13.98;;;9.25;;
67130;SDS011;54051;53.464;49.532;2022-07-30T08:39:30;12.05;;;8.88;;
67130;SDS011;54051;53.464;49.532;2022-07-30T08:41:56;13.98;;;9.48;;
67130;SDS011;54051;53.464;49.532;2022-07-30T08:44:23;15.55;;;9.38;;
67130;SDS011;54051;53.464;49.532;2022-07-30T08:46:51;13.85;;;8.38;;
67130;SDS011;54051;53.464;49.532;2022-07-30T08:49:20;13.23;;;9.27;;
67130;SDS011;54051;53.464;49.532;2022-07-30T08:51:50;14.85;;;10.10;;
67130;SDS011;54051;53.464;49.532;2022-07-30T08:54:17;18.27;;;9.43;;
67130;SDS011;54051;53.464;49.532;2022-07-30T08:56:44;18.98;;;9.52;;
67130;SDS011;54051;53.464;49.532;2022-07-30T08:59:10;14.30;;;9.02;;
67130;SDS011;54051;53.464;49.532;2022-07-30T09:01:36;15.10;;;9.57;;
67130;SDS011;54051;53.464;49.532;2022-07-30T09:04:02;17.27;;;9.70;;
67130;SDS011;54051;53.464;49.532;2022-07-30T09:06:28;15.05;;;9.77;;
67130;SDS011;54051;53.464;49.532;2022-07-30T09:08:54;13.43;;;9.80;;
67130;SDS011;54051;53.464;49.532;2022-07-30T09:11:21;16.65;;;9.77;;
67130;SDS011;54051;53.464;49.532;2022-07-30T09:13:47;13.18;;;9.65;;
67130;SDS011;54051;53.464;49.532;2022-07-30T09:16:24;15.27;;;10.10;;
67130;SDS011;54051;53.464;49.532;2022-07-30T09:18:51;14.15;;;9.65;;
67130;SDS011;54051;53.464;49.532;2022-07-30T09:21:20;15.02;;;9.48;;
67130;SDS011;54051;53.464;49.532;2022-07-30T09:23:54;15.30;;;9.73;;
67130;SDS011;54051;53.464;49.532;2022-07-30T09:26:22;14.20;;;9.73;;
67130;SDS011;54051;53.464;49.532;2022-07-30T09:31:14;15.00;;;10.20;;
67130;SDS011;54051;53.464;49.532;2022-07-30T09:33:42;14.07;;;10.10;;
67130;SDS011;54051;53.464;49.532;2022-07-30T09:36:10;15.23;;;9.82;;
67130;SDS011;54051;53.464;49.532;2022-07-30T09:38:42;15.88;;;9.50;;
67130;SDS011;54051;53.464;49.532;2022-07-30T09:41:17;13.95;;;9.82;;
67130;SDS011;54051;53.464;49.532;2022-07-30T09:43:46;14.57;;;9.10;;
67130;SDS011;54051;53.464;49.532;2022-07-30T09:46:14;13.52;;;9.43;;
67130;SDS011;54051;53.464;49.532;2022-07-30T09:48:41;15.18;;;9.40;;
67130;SDS011;54051;53.464;49.532;2022-07-30T09:51:07;15.48;;;9.57;;
67130;SDS011;54051;53.464;49.532;2022-07-30T09:53:34;13.73;;;9.50;;
67130;SDS011;54051;53.464;49.532;2022-07-30T09:56:00;13.50;;;9.15;;
67130;SDS011;54051;53.464;49.532;2022-07-30T09:58:46;15.38;;;9.98;;
67130;SDS011;54051;53.464;49.532;2022-07-30T10:01:12;15.40;;;9.35;;
67130;SDS011;54051;53.464;49.532;2022-07-30T10:06:08;13.90;;;9.13;;
67130;SDS011;54051;53.464;49.532;2022-07-30T10:08:41;12.88;;;9.00;;
67130;SDS011;54051;53.464;49.532;2022-07-30T10:11:12;15.35;;;10.13;;
67130;SDS011;54051;53.464;49.532;2022-07-30T10:13:42;14.60;;;9.50;;
67130;SDS011;54051;53.464;49.532;2022-07-30T10:16:08;17.80;;;9.65;;
67130;SDS011;54051;53.464;49.532;2022-07-30T10:18:35;16.05;;;9.70;;
67130;SDS011;54051;53.464;49.532;2022-07-30T10:21:02;15.30;;;9.18;;
67130;SDS011;54051;53.464;49.532;2022-07-30T10:23:28;14.07;;;9.30;;
67130;SDS011;54051;53.464;49.532;2022-07-30T10:25:57;15.48;;;9.20;;
67130;SDS011;54051;53.464;49.532;2022-07-30T10:28:25;15.90;;;9.52;;
67130;SDS011;54051;53.464;49.532;2022-07-30T10:30:52;15.52;;;9.40;;
67130;SDS011;54051;53.464;49.532;2022-07-30T10:33:24;11.88;;;8.48;;
67130;SDS011;54051;53.464;49.532;2022-07-30T10:35:53;14.13;;;8.75;;
67130;SDS011;54051;53.464;49.532;2022-07-30T10:38:20;13.45;;;8.82;;
67130;SDS011;54051;53.464;49.532;2022-07-30T10:40:56;13.32;;;8.95;;
67130;SDS011;54051;53.464;49.532;2022-07-30T10:43:41;14.10;;;8.77;;
67130;SDS011;54051;53.464;49.532;2022-07-30T10:49:10;13.30;;;8.63;;
67130;SDS011;54051;53.464;49.532;2022-07-30T10:51:48;18.77;;;8.95;;
67130;SDS011;54051;53.464;49.532;2022-07-30T10:57:07;11.73;;;8.13;;
67130;SDS011;54051;53.464;49.532;2022-07-30T11:02:17;12.40;;;7.70;;
67130;SDS011;54051;53.464;49.532;2022-07-30T11:04:44;12.20;;;7.95;;
67130;SDS011;54051;53.464;49.532;2022-07-30T11:09:46;12.10;;;7.80;;
67130;SDS011;54051;53.464;49.532;2022-07-30T11:12:13;13.45;;;7.63;;
67130;SDS011;54051;53.464;49.532;2022-07-30T11:17:12;11.80;;;7.65;;
67130;SDS011;54051;53.464;49.532;2022-07-30T11:22:35;12.55;;;8.20;;
67130;SDS011;54051;53.464;49.532;2022-07-30T11:25:06;12.93;;;7.63;;
67130;SDS011;54051;53.464;49.532;2022-07-30T11:32:46;11.35;;;7.43;;
67130;SDS011;54051;53.464;49.532;2022-07-30T11:35:19;12.88;;;7.90;;
67130;SDS011;54051;53.464;49.532;2022-07-30T11:38:03;11.48;;;7.47;;
67130;SDS011;54051;53.464;49.532;2022-07-30T11:43:30;11.65;;;7.65;;
67130;SDS011;54051;53.464;49.532;2022-07-30T11:48:40;12.90;;;7.85;;
67130;SDS011;54051;53.464;49.532;2022-07-30T11:51:08;13.35;;;8.25;;
67130;SDS011;54051;53.464;49.532;2022-07-30T11:53:35;12.38;;;8.13;;
67130;SDS011;54051;53.464;49.532;2022-07-30T11:56:02;11.15;;;7.85;;
67130;SDS011;54051;53.464;49.532;2022-07-30T11:58:32;10.73;;;7.90;;
67130;SDS011;54051;53.464;49.532;2022-07-30T12:01:00;11.55;;;8.32;;
67130;SDS011;54051;53.464;49.532;2022-07-30T12:03:29;12.18;;;8.23;;
67130;SDS011;54051;53.464;49.532;2022-07-30T12:06:06;12.52;;;8.55;;
67130;SDS011;54051;53.464;49.532;2022-07-30T12:08:44;11.90;;;8.18;;
67130;SDS011;54051;53.464;49.532;2022-07-30T12:11:12;13.13;;;8.60;;
67130;SDS011;54051;53.464;49.532;2022-07-30T12:16:08;12.95;;;8.30;;
67130;SDS011;54051;53.464;49.532;2022-07-30T12:18:35;12.43;;;8.95;;
67130;SDS011;54051;53.464;49.532;2022-07-30T12:21:02;12.52;;;9.10;;
67130;SDS011;54051;53.464;49.532;2022-07-30T12:23:33;12.50;;;9.07;;
67130;SDS011;54051;53.464;49.532;2022-07-30T12:25:59;13.38;;;9.27;;
67130;SDS011;54051;53.464;49.532;2022-07-30T12:28:28;14.18;;;9.20;;
67130;SDS011;54051;53.464;49.532;2022-07-30T12:30:56;12.65;;;9.38;;
67130;SDS011;54051;53.464;49.532;2022-07-30T12:33:23;12.95;;;9.10;;
67130;SDS011;54051;53.464;49.532;2022-07-30T12:35:54;14.85;;;10.80;;
67130;SDS011;54051;53.464;49.532;2022-07-30T12:38:21;13.05;;;9.90;;
67130;SDS011;54051;53.464;49.532;2022-07-30T12:40:54;11.38;;;8.77;;
67130;SDS011;54051;53.464;49.532;2022-07-30T12:46:17;15.18;;;11.20;;
67130;SDS011;54051;53.464;49.532;2022-07-30T12:48:55;11.93;;;8.98;;
67130;SDS011;54051;53.464;49.532;2022-07-30T12:51:22;13.63;;;8.95;;
67130;SDS011;54051;53.464;49.532;2022-07-30T12:53:49;16.13;;;10.00;;
67130;SDS011;54051;53.464;49.532;2022-07-30T12:56:21;13.20;;;9.65;;
67130;SDS011;54051;53.464;49.532;2022-07-30T12:58:49;12.60;;;9.07;;
67130;SDS011;54051;53.464;49.532;2022-07-30T13:01:16;15.65;;;11.60;;
67130;SDS011;54051;53.464;49.532;2022-07-30T13:03:42;14.43;;;9.75;;
67130;SDS011;54051;53.464;49.532;2022-07-30T13:06:10;13.95;;;9.20;;
67130;SDS011;54051;53.464;49.532;2022-07-30T13:08:50;12.70;;;9.13;;
67130;SDS011;54051;53.464;49.532;2022-07-30T13:11:19;13.63;;;9.30;;
67130;SDS011;54051;53.464;49.532;2022-07-30T13:13:50;15.63;;;10.38;;
67130;SDS011;54051;53.464;49.532;2022-07-30T13:16:17;13.88;;;10.50;;
67130;SDS011;54051;53.464;49.532;2022-07-30T13:18:44;16.73;;;11.98;;
67130;SDS011;54051;53.464;49.532;2022-07-30T13:21:11;15.88;;;11.15;;
67130;SDS011;54051;53.464;49.532;2022-07-30T13:23:38;14.20;;;10.13;;
67130;SDS011;54051;53.464;49.532;2022-07-30T13:26:05;13.15;;;9.95;;
67130;SDS011;54051;53.464;49.532;2022-07-30T13:28:33;13.82;;;9.52;;
67130;SDS011;54051;53.464;49.532;2022-07-30T13:30:59;13.05;;;9.50;;
67130;SDS011;54051;53.464;49.532;2022-07-30T13:33:26;13.60;;;9.73;;
67130;SDS011;54051;53.464;49.532;2022-07-30T13:35:52;13.93;;;9.90;;
67130;SDS011;54051;53.464;49.532;2022-07-30T13:40:44;13.07;;;9.40;;
67130;SDS011;54051;53.464;49.532;2022-07-30T13:43:10;14.10;;;9.70;;
67130;SDS011;54051;53.464;49.532;2022-07-30T13:45:36;14.18;;;10.07;;
67130;SDS011;54051;53.464;49.532;2022-07-30T13:48:02;14.50;;;10.20;;
67130;SDS011;54051;53.464;49.532;2022-07-30T13:50:28;13.38;;;10.30;;
67130;SDS011;54051;53.464;49.532;2022-07-30T13:52:54;13.73;;;9.43;;
67130;SDS011;54051;53.464;49.532;2022-07-30T13:55:20;12.85;;;10.00;;
67130;SDS011;54051;53.464;49.532;2022-07-30T13:57:46;14.70;;;10.32;;
67130;SDS011;54051;53.464;49.532;2022-07-30T14:00:12;13.98;;;9.82;;
67130;SDS011;54051;53.464;49.532;2022-07-30T14:02:39;13.93;;;10.40;;
67130;SDS011;54051;53.464;49.532;2022-07-30T14:05:05;16.65;;;11.55;;
67130;SDS011;54051;53.464;49.532;2022-07-30T14:07:32;16.00;;;11.95;;
67130;SDS011;54051;53.464;49.532;2022-07-30T14:09:58;14.00;;;10.70;;
67130;SDS011;54051;53.464;49.532;2022-07-30T14:12:24;14.05;;;10.55;;
67130;SDS011;54051;53.464;49.532;2022-07-30T14:14:50;13.57;;;10.38;;
67130;SDS011;54051;53.464;49.532;2022-07-30T14:17:17;15.23;;;10.23;;
67130;SDS011;54051;53.464;49.532;2022-07-30T14:19:43;15.65;;;10.38;;
67130;SDS011;54051;53.464;49.532;2022-07-30T14:22:08;14.13;;;10.88;;
67130;SDS011;54051;53.464;49.532;2022-07-30T14:24:34;14.32;;;11.35;;
67130;SDS011;54051;53.464;49.532;2022-07-30T14:27:00;15.45;;;10.68;;
67130;SDS011;54051;53.464;49.532;2022-07-30T14:29:26;17.13;;;12.35;;
67130;SDS011;54051;53.464;49.532;2022-07-30T14:31:53;17.95;;;12.60;;
67130;SDS011;54051;53.464;49.532;2022-07-30T14:34:20;18.48;;;13.27;;
67130;SDS011;54051;53.464;49.532;2022-07-30T14:36:46;19.15;;;13.70;;
67130;SDS011;54051;53.464;49.532;2022-07-30T14:39:12;19.83;;;13.10;;
67130;SDS011;54051;53.464;49.532;2022-07-30T14:41:39;18.30;;;13.02;;
67130;SDS011;54051;53.464;49.532;2022-07-30T14:44:05;17.67;;;12.25;;
67130;SDS011;54051;53.464;49.532;2022-07-30T14:46:36;16.48;;;12.13;;
67130;SDS011;54051;53.464;49.532;2022-07-30T14:49:03;16.50;;;11.63;;
67130;SDS011;54051;53.464;49.532;2022-07-30T14:51:29;15.30;;;11.63;;
67130;SDS011;54051;53.464;49.532;2022-07-30T14:53:55;17.30;;;11.60;;
67130;SDS011;54051;53.464;49.532;2022-07-30T14:56:21;16.45;;;11.20;;
67130;SDS011;54051;53.464;49.532;2022-07-30T14:58:49;15.73;;;11.88;;
67130;SDS011;54051;53.464;49.532;2022-07-30T15:01:15;16.50;;;12.18;;
67130;SDS011;54051;53.464;49.532;2022-07-30T15:03:42;18.08;;;12.65;;
67130;SDS011;54051;53.464;49.532;2022-07-30T15:06:09;16.33;;;12.45;;